sensor_id;sensor_type;location;lat;lon;timestamp;P1;durP1;ratioP1;P2;durP2;ratioP2
71176;SDS011;58877;51.992;4.504;2023-03-02T00:01:26;20.75;;;20.42;;
71176;SDS011;58877;51.992;4.504;2023-03-02T00:03:55;19.72;;;19.43;;
71176;SDS011;58877;51.992;4.504;2023-03-02T00:06:25;20.90;;;20.64;;
71176;SDS011;58877;51.992;4.504;2023-03-02T00:08:55;22.86;;;22.43;;
71176;SDS011;58877;51.992;4.504;2023-03-02T00:11:25;24.09;;;23.60;;
71176;SDS011;58877;51.992;4.504;2023-03-02T00:13:52;23.68;;;23.23;;
71176;SDS011;58877;51.992;4.504;2023-03-02T00:16:18;25.13;;;24.58;;
71176;SDS011;58877;51.992;4.504;2023-03-02T00:18:43;26.38;;;25.81;;
71176;SDS011;58877;51.992;4.504;2023-03-02T00:21:09;26.65;;;26.19;;
71176;SDS011;58877;51.992;4.504;2023-03-02T00:23:35;27.44;;;26.70;;
71176;SDS011;58877;51.992;4.504;2023-03-02T00:26:02;28.11;;;27.37;;
71176;SDS011;58877;51.992;4.504;2023-03-02T00:28:29;29.77;;;29.20;;
71176;SDS011;58877;51.992;4.504;2023-03-02T00:30:55;30.16;;;29.37;;
71176;SDS011;58877;51.992;4.504;2023-03-02T00:33:20;30.93;;;30.16;;
71176;SDS011;58877;51.992;4.504;2023-03-02T00:35:46;31.11;;;30.51;;
71176;SDS011;58877;51.992;4.504;2023-03-02T00:38:12;31.25;;;30.54;;
71176;SDS011;58877;51.992;4.504;2023-03-02T00:40:42;32.42;;;31.60;;
71176;SDS011;58877;51.992;4.504;2023-03-02T00:43:09;31.48;;;30.82;;
71176;SDS011;58877;51.992;4.504;2023-03-02T00:45:34;33.09;;;32.17;;
71176;SDS011;58877;51.992;4.504;2023-03-02T00:48:00;34.11;;;33.11;;
71176;SDS011;58877;51.992;4.504;2023-03-02T00:50:26;32.26;;;31.30;;
71176;SDS011;58877;51.992;4.504;2023-03-02T00:52:51;32.51;;;31.77;;
71176;SDS011;58877;51.992;4.504;2023-03-02T00:55:17;34.18;;;33.32;;
71176;SDS011;58877;51.992;4.504;2023-03-02T00:57:42;33.25;;;32.60;;
71176;SDS011;58877;51.992;4.504;2023-03-02T01:00:08;32.65;;;32.01;;
71176;SDS011;58877;51.992;4.504;2023-03-02T01:02:34;34.40;;;33.50;;
71176;SDS011;58877;51.992;4.504;2023-03-02T01:05:03;33.74;;;32.89;;
71176;SDS011;58877;51.992;4.504;2023-03-02T01:07:29;34.34;;;33.58;;
71176;SDS011;58877;51.992;4.504;2023-03-02T01:09:54;33.47;;;32.76;;
71176;SDS011;58877;51.992;4.504;2023-03-02T01:12:20;33.40;;;32.71;;
71176;SDS011;58877;51.992;4.504;2023-03-02T01:14:47;33.80;;;33.05;;
71176;SDS011;58877;51.992;4.504;2023-03-02T01:17:15;32.25;;;31.63;;
71176;SDS011;58877;51.992;4.504;2023-03-02T01:19:41;33.64;;;33.12;;
71176;SDS011;58877;51.992;4.504;2023-03-02T01:22:07;33.06;;;32.49;;
71176;SDS011;58877;51.992;4.504;2023-03-02T01:24:33;33.94;;;33.23;;
71176;SDS011;58877;51.992;4.504;2023-03-02T01:26:59;33.11;;;32.51;;
71176;SDS011;58877;51.992;4.504;2023-03-02T01:29:25;33.31;;;32.43;;
71176;SDS011;58877;51.992;4.504;2023-03-02T01:31:50;33.28;;;32.48;;
71176;SDS011;58877;51.992;4.504;2023-03-02T01:34:16;33.49;;;32.49;;
71176;SDS011;58877;51.992;4.504;2023-03-02T01:36:42;33.41;;;32.58;;
71176;SDS011;58877;51.992;4.504;2023-03-02T01:39:13;32.16;;;31.48;;
71176;SDS011;58877;51.992;4.504;2023-03-02T01:41:42;33.49;;;32.66;;
71176;SDS011;58877;51.992;4.504;2023-03-02T01:44:54;34.77;;;33.77;;
71176;SDS011;58877;51.992;4.504;2023-03-02T01:47:04;33.95;;;33.32;;
71176;SDS011;58877;51.992;4.504;2023-03-02T01:49:55;34.66;;;33.40;;
71176;SDS011;58877;51.992;4.504;2023-03-02T01:52:26;34.83;;;33.83;;
71176;SDS011;58877;51.992;4.504;2023-03-02T01:54:56;33.99;;;32.93;;
71176;SDS011;58877;51.992;4.504;2023-03-02T01:57:26;33.68;;;33.00;;
71176;SDS011;58877;51.992;4.504;2023-03-02T01:59:58;33.01;;;32.07;;
71176;SDS011;58877;51.992;4.504;2023-03-02T02:02:32;33.12;;;32.17;;
71176;SDS011;58877;51.992;4.504;2023-03-02T02:05:00;33.64;;;32.74;;
71176;SDS011;58877;51.992;4.504;2023-03-02T02:07:28;32.73;;;31.91;;
71176;SDS011;58877;51.992;4.504;2023-03-02T02:09:53;32.92;;;31.98;;
71176;SDS011;58877;51.992;4.504;2023-03-02T02:12:21;33.61;;;32.41;;
71176;SDS011;58877;51.992;4.504;2023-03-02T02:14:47;34.59;;;33.11;;
71176;SDS011;58877;51.992;4.504;2023-03-02T02:17:15;33.46;;;32.46;;
71176;SDS011;58877;51.992;4.504;2023-03-02T02:22:09;32.40;;;31.32;;
71176;SDS011;58877;51.992;4.504;2023-03-02T02:24:47;33.00;;;32.10;;
71176;SDS011;58877;51.992;4.504;2023-03-02T02:27:22;33.05;;;31.71;;
71176;SDS011;58877;51.992;4.504;2023-03-02T02:29:57;32.14;;;30.93;;
71176;SDS011;58877;51.992;4.504;2023-03-02T02:32:27;34.69;;;33.19;;
71176;SDS011;58877;51.992;4.504;2023-03-02T02:35:34;33.92;;;32.34;;
71176;SDS011;58877;51.992;4.504;2023-03-02T02:37:56;34.68;;;32.79;;
71176;SDS011;58877;51.992;4.504;2023-03-02T02:40:37;34.33;;;32.61;;
71176;SDS011;58877;51.992;4.504;2023-03-02T02:43:17;33.01;;;31.84;;
71176;SDS011;58877;51.992;4.504;2023-03-02T02:45:45;33.43;;;32.08;;
71176;SDS011;58877;51.992;4.504;2023-03-02T02:48:15;33.47;;;31.93;;
71176;SDS011;58877;51.992;4.504;2023-03-02T02:50:47;34.87;;;33.15;;
71176;SDS011;58877;51.992;4.504;2023-03-02T02:53:21;33.71;;;32.08;;
71176;SDS011;58877;51.992;4.504;2023-03-02T02:55:53;33.78;;;32.29;;
71176;SDS011;58877;51.992;4.504;2023-03-02T02:58:25;32.89;;;31.85;;
71176;SDS011;58877;51.992;4.504;2023-03-02T03:01:04;32.55;;;31.26;;
71176;SDS011;58877;51.992;4.504;2023-03-02T03:03:32;32.65;;;31.50;;
71176;SDS011;58877;51.992;4.504;2023-03-02T03:06:02;33.22;;;31.87;;
71176;SDS011;58877;51.992;4.504;2023-03-02T03:11:10;33.24;;;32.11;;
71176;SDS011;58877;51.992;4.504;2023-03-02T03:13:38;34.39;;;32.31;;
71176;SDS011;58877;51.992;4.504;2023-03-02T03:16:09;34.22;;;32.36;;
71176;SDS011;58877;51.992;4.504;2023-03-02T03:18:41;32.61;;;31.14;;
71176;SDS011;58877;51.992;4.504;2023-03-02T03:21:09;34.06;;;32.64;;
71176;SDS011;58877;51.992;4.504;2023-03-02T03:23:35;33.29;;;31.80;;
71176;SDS011;58877;51.992;4.504;2023-03-02T03:26:04;32.73;;;31.47;;
71176;SDS011;58877;51.992;4.504;2023-03-02T03:28:30;34.93;;;33.25;;
71176;SDS011;58877;51.992;4.504;2023-03-02T03:30:59;33.40;;;31.91;;
71176;SDS011;58877;51.992;4.504;2023-03-02T03:33:24;33.86;;;32.22;;
71176;SDS011;58877;51.992;4.504;2023-03-02T03:35:50;34.41;;;32.47;;
71176;SDS011;58877;51.992;4.504;2023-03-02T03:38:16;32.15;;;30.78;;
71176;SDS011;58877;51.992;4.504;2023-03-02T03:40:42;32.96;;;31.14;;
71176;SDS011;58877;51.992;4.504;2023-03-02T03:43:11;33.11;;;31.23;;
71176;SDS011;58877;51.992;4.504;2023-03-02T03:45:39;32.91;;;31.32;;
71176;SDS011;58877;51.992;4.504;2023-03-02T03:48:05;34.06;;;32.24;;
71176;SDS011;58877;51.992;4.504;2023-03-02T03:50:31;32.51;;;30.95;;
71176;SDS011;58877;51.992;4.504;2023-03-02T03:52:57;32.63;;;31.02;;
71176;SDS011;58877;51.992;4.504;2023-03-02T03:55:22;31.81;;;30.73;;
71176;SDS011;58877;51.992;4.504;2023-03-02T03:57:52;31.56;;;29.96;;
71176;SDS011;58877;51.992;4.504;2023-03-02T04:00:18;32.24;;;30.55;;
71176;SDS011;58877;51.992;4.504;2023-03-02T04:02:45;32.70;;;30.81;;
71176;SDS011;58877;51.992;4.504;2023-03-02T04:05:11;33.12;;;31.06;;
71176;SDS011;58877;51.992;4.504;2023-03-02T04:07:37;32.83;;;30.97;;
71176;SDS011;58877;51.992;4.504;2023-03-02T04:10:05;33.04;;;31.41;;
71176;SDS011;58877;51.992;4.504;2023-03-02T04:12:44;30.99;;;29.48;;
71176;SDS011;58877;51.992;4.504;2023-03-02T04:15:12;30.17;;;28.95;;
71176;SDS011;58877;51.992;4.504;2023-03-02T04:17:40;31.15;;;29.97;;
71176;SDS011;58877;51.992;4.504;2023-03-02T04:20:09;31.30;;;30.04;;
71176;SDS011;58877;51.992;4.504;2023-03-02T04:22:41;31.20;;;29.74;;
71176;SDS011;58877;51.992;4.504;2023-03-02T04:25:15;31.42;;;30.11;;
71176;SDS011;58877;51.992;4.504;2023-03-02T04:27:46;31.10;;;29.88;;
71176;SDS011;58877;51.992;4.504;2023-03-02T04:30:15;30.84;;;29.51;;
71176;SDS011;58877;51.992;4.504;2023-03-02T04:32:43;31.99;;;30.22;;
71176;SDS011;58877;51.992;4.504;2023-03-02T04:35:09;31.67;;;29.92;;
71176;SDS011;58877;51.992;4.504;2023-03-02T04:37:36;29.78;;;28.61;;
71176;SDS011;58877;51.992;4.504;2023-03-02T04:40:02;30.19;;;28.83;;
71176;SDS011;58877;51.992;4.504;2023-03-02T04:42:33;28.89;;;27.82;;
71176;SDS011;58877;51.992;4.504;2023-03-02T04:44:59;28.89;;;27.83;;
71176;SDS011;58877;51.992;4.504;2023-03-02T04:47:25;28.85;;;27.89;;
71176;SDS011;58877;51.992;4.504;2023-03-02T04:49:51;30.42;;;29.51;;
71176;SDS011;58877;51.992;4.504;2023-03-02T04:52:21;30.40;;;29.01;;
71176;SDS011;58877;51.992;4.504;2023-03-02T04:54:49;29.84;;;28.38;;
71176;SDS011;58877;51.992;4.504;2023-03-02T04:57:16;30.35;;;29.14;;
71176;SDS011;58877;51.992;4.504;2023-03-02T04:59:42;29.82;;;28.40;;
71176;SDS011;58877;51.992;4.504;2023-03-02T05:02:11;29.50;;;28.09;;
71176;SDS011;58877;51.992;4.504;2023-03-02T05:04:39;29.18;;;27.77;;
71176;SDS011;58877;51.992;4.504;2023-03-02T05:07:06;28.11;;;27.00;;
71176;SDS011;58877;51.992;4.504;2023-03-02T05:09:32;28.88;;;27.58;;
71176;SDS011;58877;51.992;4.504;2023-03-02T05:11:58;28.83;;;27.67;;
71176;SDS011;58877;51.992;4.504;2023-03-02T05:14:25;28.18;;;27.14;;
71176;SDS011;58877;51.992;4.504;2023-03-02T05:16:51;27.51;;;26.35;;
71176;SDS011;58877;51.992;4.504;2023-03-02T05:19:17;28.55;;;27.45;;
71176;SDS011;58877;51.992;4.504;2023-03-02T05:21:44;29.81;;;28.32;;
71176;SDS011;58877;51.992;4.504;2023-03-02T05:24:11;27.66;;;26.50;;
71176;SDS011;58877;51.992;4.504;2023-03-02T05:26:37;27.66;;;26.42;;
71176;SDS011;58877;51.992;4.504;2023-03-02T05:29:05;27.78;;;26.69;;
71176;SDS011;58877;51.992;4.504;2023-03-02T05:31:38;28.60;;;27.44;;
71176;SDS011;58877;51.992;4.504;2023-03-02T05:34:07;26.71;;;25.83;;
71176;SDS011;58877;51.992;4.504;2023-03-02T05:36:36;26.91;;;25.99;;
71176;SDS011;58877;51.992;4.504;2023-03-02T05:39:05;27.76;;;26.43;;
71176;SDS011;58877;51.992;4.504;2023-03-02T05:41:32;28.42;;;26.93;;
71176;SDS011;58877;51.992;4.504;2023-03-02T05:44:00;26.69;;;25.76;;
71176;SDS011;58877;51.992;4.504;2023-03-02T05:46:26;27.01;;;26.03;;
71176;SDS011;58877;51.992;4.504;2023-03-02T05:48:52;26.24;;;25.17;;
71176;SDS011;58877;51.992;4.504;2023-03-02T05:51:18;27.14;;;26.02;;
71176;SDS011;58877;51.992;4.504;2023-03-02T05:53:44;24.96;;;24.09;;
71176;SDS011;58877;51.992;4.504;2023-03-02T05:56:10;25.89;;;24.81;;
71176;SDS011;58877;51.992;4.504;2023-03-02T05:58:36;25.52;;;24.43;;
71176;SDS011;58877;51.992;4.504;2023-03-02T06:01:01;25.73;;;24.92;;
71176;SDS011;58877;51.992;4.504;2023-03-02T06:03:41;25.76;;;24.78;;
71176;SDS011;58877;51.992;4.504;2023-03-02T06:06:13;25.51;;;25.07;;
71176;SDS011;58877;51.992;4.504;2023-03-02T06:08:42;25.05;;;24.37;;
71176;SDS011;58877;51.992;4.504;2023-03-02T06:11:09;26.19;;;25.21;;
71176;SDS011;58877;51.992;4.504;2023-03-02T06:13:35;24.78;;;23.96;;
71176;SDS011;58877;51.992;4.504;2023-03-02T06:16:02;24.56;;;24.07;;
71176;SDS011;58877;51.992;4.504;2023-03-02T06:18:28;24.50;;;23.93;;
71176;SDS011;58877;51.992;4.504;2023-03-02T06:20:54;25.00;;;24.27;;
71176;SDS011;58877;51.992;4.504;2023-03-02T06:23:19;25.22;;;24.52;;
71176;SDS011;58877;51.992;4.504;2023-03-02T06:25:45;25.40;;;24.53;;
71176;SDS011;58877;51.992;4.504;2023-03-02T06:28:16;24.91;;;23.81;;
71176;SDS011;58877;51.992;4.504;2023-03-02T06:30:46;24.68;;;24.01;;
71176;SDS011;58877;51.992;4.504;2023-03-02T06:33:14;26.61;;;25.46;;
71176;SDS011;58877;51.992;4.504;2023-03-02T06:35:45;25.98;;;24.80;;
71176;SDS011;58877;51.992;4.504;2023-03-02T06:38:12;26.42;;;24.76;;
71176;SDS011;58877;51.992;4.504;2023-03-02T06:40:38;23.87;;;23.04;;
71176;SDS011;58877;51.992;4.504;2023-03-02T06:43:03;24.78;;;24.06;;
71176;SDS011;58877;51.992;4.504;2023-03-02T06:45:29;25.91;;;24.88;;
71176;SDS011;58877;51.992;4.504;2023-03-02T06:47:58;24.24;;;23.63;;
71176;SDS011;58877;51.992;4.504;2023-03-02T06:50:25;24.85;;;24.08;;
71176;SDS011;58877;51.992;4.504;2023-03-02T06:52:52;25.61;;;24.74;;
71176;SDS011;58877;51.992;4.504;2023-03-02T06:55:18;23.90;;;23.24;;
71176;SDS011;58877;51.992;4.504;2023-03-02T06:57:44;25.34;;;24.65;;
71176;SDS011;58877;51.992;4.504;2023-03-02T07:00:10;24.87;;;24.08;;
71176;SDS011;58877;51.992;4.504;2023-03-02T07:02:44;25.31;;;24.43;;
71176;SDS011;58877;51.992;4.504;2023-03-02T07:05:11;25.35;;;24.69;;
71176;SDS011;58877;51.992;4.504;2023-03-02T07:07:37;25.48;;;24.40;;
71176;SDS011;58877;51.992;4.504;2023-03-02T07:10:04;26.29;;;25.16;;
71176;SDS011;58877;51.992;4.504;2023-03-02T07:12:34;25.38;;;24.48;;
71176;SDS011;58877;51.992;4.504;2023-03-02T07:15:01;24.91;;;23.87;;
71176;SDS011;58877;51.992;4.504;2023-03-02T07:17:32;25.11;;;24.18;;
71176;SDS011;58877;51.992;4.504;2023-03-02T07:19:58;24.38;;;23.66;;
71176;SDS011;58877;51.992;4.504;2023-03-02T07:22:23;24.62;;;23.97;;
71176;SDS011;58877;51.992;4.504;2023-03-02T07:24:49;25.33;;;24.52;;
71176;SDS011;58877;51.992;4.504;2023-03-02T07:27:21;24.94;;;24.15;;
71176;SDS011;58877;51.992;4.504;2023-03-02T07:29:51;25.13;;;24.13;;
71176;SDS011;58877;51.992;4.504;2023-03-02T07:32:16;26.18;;;24.83;;
71176;SDS011;58877;51.992;4.504;2023-03-02T07:34:42;26.58;;;25.60;;
71176;SDS011;58877;51.992;4.504;2023-03-02T07:37:08;26.13;;;24.85;;
71176;SDS011;58877;51.992;4.504;2023-03-02T07:39:33;26.68;;;25.59;;
71176;SDS011;58877;51.992;4.504;2023-03-02T07:42:00;26.49;;;25.38;;
71176;SDS011;58877;51.992;4.504;2023-03-02T07:44:29;27.23;;;25.77;;
71176;SDS011;58877;51.992;4.504;2023-03-02T07:46:55;26.64;;;25.38;;
71176;SDS011;58877;51.992;4.504;2023-03-02T07:49:21;26.61;;;25.32;;
71176;SDS011;58877;51.992;4.504;2023-03-02T07:51:47;26.04;;;24.71;;
71176;SDS011;58877;51.992;4.504;2023-03-02T07:54:13;26.08;;;24.72;;
71176;SDS011;58877;51.992;4.504;2023-03-02T07:56:39;25.75;;;24.79;;
71176;SDS011;58877;51.992;4.504;2023-03-02T07:59:07;26.27;;;25.01;;
71176;SDS011;58877;51.992;4.504;2023-03-02T08:01:33;27.15;;;25.93;;
71176;SDS011;58877;51.992;4.504;2023-03-02T08:03:58;26.55;;;25.19;;
71176;SDS011;58877;51.992;4.504;2023-03-02T08:06:27;25.83;;;24.89;;
71176;SDS011;58877;51.992;4.504;2023-03-02T08:08:53;26.91;;;25.69;;
71176;SDS011;58877;51.992;4.504;2023-03-02T08:11:19;26.26;;;25.13;;
71176;SDS011;58877;51.992;4.504;2023-03-02T08:13:44;26.89;;;26.07;;
71176;SDS011;58877;51.992;4.504;2023-03-02T08:16:11;25.90;;;24.88;;
71176;SDS011;58877;51.992;4.504;2023-03-02T08:18:41;26.04;;;24.87;;
71176;SDS011;58877;51.992;4.504;2023-03-02T08:21:15;26.91;;;25.73;;
71176;SDS011;58877;51.992;4.504;2023-03-02T08:23:43;25.48;;;24.40;;
71176;SDS011;58877;51.992;4.504;2023-03-02T08:26:09;26.20;;;25.36;;
71176;SDS011;58877;51.992;4.504;2023-03-02T08:28:36;25.80;;;24.87;;
71176;SDS011;58877;51.992;4.504;2023-03-02T08:31:06;25.89;;;24.91;;
71176;SDS011;58877;51.992;4.504;2023-03-02T08:33:33;26.93;;;25.84;;
71176;SDS011;58877;51.992;4.504;2023-03-02T08:36:08;26.74;;;25.39;;
71176;SDS011;58877;51.992;4.504;2023-03-02T08:38:38;25.49;;;24.52;;
71176;SDS011;58877;51.992;4.504;2023-03-02T08:41:05;26.58;;;25.18;;
71176;SDS011;58877;51.992;4.504;2023-03-02T08:43:32;26.41;;;25.09;;
71176;SDS011;58877;51.992;4.504;2023-03-02T08:45:59;25.32;;;24.52;;
71176;SDS011;58877;51.992;4.504;2023-03-02T08:48:25;25.36;;;24.60;;
71176;SDS011;58877;51.992;4.504;2023-03-02T08:53:22;24.74;;;23.49;;
71176;SDS011;58877;51.992;4.504;2023-03-02T08:55:48;25.45;;;24.39;;
71176;SDS011;58877;51.992;4.504;2023-03-02T08:58:14;23.36;;;22.80;;
71176;SDS011;58877;51.992;4.504;2023-03-02T09:00:39;24.23;;;23.56;;
71176;SDS011;58877;51.992;4.504;2023-03-02T09:03:05;23.60;;;22.69;;
71176;SDS011;58877;51.992;4.504;2023-03-02T09:05:30;23.26;;;22.60;;
71176;SDS011;58877;51.992;4.504;2023-03-02T09:07:56;22.58;;;22.09;;
71176;SDS011;58877;51.992;4.504;2023-03-02T09:10:21;21.57;;;21.02;;
71176;SDS011;58877;51.992;4.504;2023-03-02T09:12:47;21.90;;;21.42;;
71176;SDS011;58877;51.992;4.504;2023-03-02T09:15:13;20.82;;;20.37;;
71176;SDS011;58877;51.992;4.504;2023-03-02T09:17:38;20.70;;;20.15;;
71176;SDS011;58877;51.992;4.504;2023-03-02T09:20:04;19.37;;;18.97;;
71176;SDS011;58877;51.992;4.504;2023-03-02T09:22:30;19.50;;;19.20;;
71176;SDS011;58877;51.992;4.504;2023-03-02T09:24:56;20.24;;;19.38;;
71176;SDS011;58877;51.992;4.504;2023-03-02T09:27:21;20.34;;;19.34;;
71176;SDS011;58877;51.992;4.504;2023-03-02T09:29:47;19.85;;;19.16;;
71176;SDS011;58877;51.992;4.504;2023-03-02T09:32:13;18.44;;;18.11;;
71176;SDS011;58877;51.992;4.504;2023-03-02T09:34:40;18.61;;;18.12;;
71176;SDS011;58877;51.992;4.504;2023-03-02T09:37:05;17.70;;;17.36;;
71176;SDS011;58877;51.992;4.504;2023-03-02T09:39:31;17.95;;;17.39;;
71176;SDS011;58877;51.992;4.504;2023-03-02T09:55:52;17.46;;;17.01;;
71176;SDS011;58877;51.992;4.504;2023-03-02T09:58:20;17.38;;;17.10;;
71176;SDS011;58877;51.992;4.504;2023-03-02T10:00:49;16.72;;;16.34;;
71176;SDS011;58877;51.992;4.504;2023-03-02T10:05:43;15.64;;;15.51;;
71176;SDS011;58877;51.992;4.504;2023-03-02T10:08:18;15.58;;;15.47;;
71176;SDS011;58877;51.992;4.504;2023-03-02T10:13:56;15.49;;;15.19;;
71176;SDS011;58877;51.992;4.504;2023-03-02T10:16:46;15.38;;;15.02;;
71176;SDS011;58877;51.992;4.504;2023-03-02T10:19:22;16.81;;;16.17;;
71176;SDS011;58877;51.992;4.504;2023-03-02T10:22:16;15.98;;;15.46;;
71176;SDS011;58877;51.992;4.504;2023-03-02T10:27:55;15.42;;;15.04;;
71176;SDS011;58877;51.992;4.504;2023-03-02T10:30:43;16.13;;;15.76;;
71176;SDS011;58877;51.992;4.504;2023-03-02T10:33:15;16.55;;;16.03;;
71176;SDS011;58877;51.992;4.504;2023-03-02T10:35:46;16.24;;;15.95;;
71176;SDS011;58877;51.992;4.504;2023-03-02T10:38:15;16.26;;;15.91;;
71176;SDS011;58877;51.992;4.504;2023-03-02T10:40:47;15.58;;;15.33;;
71176;SDS011;58877;51.992;4.504;2023-03-02T10:43:25;15.75;;;15.33;;
71176;SDS011;58877;51.992;4.504;2023-03-02T10:45:58;15.90;;;15.61;;
71176;SDS011;58877;51.992;4.504;2023-03-02T10:48:26;15.44;;;15.28;;
71176;SDS011;58877;51.992;4.504;2023-03-02T10:50:53;14.23;;;13.97;;
71176;SDS011;58877;51.992;4.504;2023-03-02T10:53:19;15.05;;;14.72;;
71176;SDS011;58877;51.992;4.504;2023-03-02T10:55:46;14.55;;;14.24;;
71176;SDS011;58877;51.992;4.504;2023-03-02T11:01:00;15.73;;;15.50;;
71176;SDS011;58877;51.992;4.504;2023-03-02T11:03:39;15.09;;;14.83;;
71176;SDS011;58877;51.992;4.504;2023-03-02T11:06:17;14.86;;;14.67;;
71176;SDS011;58877;51.992;4.504;2023-03-02T11:08:44;15.44;;;15.11;;
71176;SDS011;58877;51.992;4.504;2023-03-02T11:11:19;14.80;;;14.62;;
71176;SDS011;58877;51.992;4.504;2023-03-02T11:13:47;14.65;;;14.39;;
71176;SDS011;58877;51.992;4.504;2023-03-02T11:18:43;15.02;;;14.66;;
71176;SDS011;58877;51.992;4.504;2023-03-02T11:26:43;14.67;;;14.42;;
71176;SDS011;58877;51.992;4.504;2023-03-02T11:31:53;13.94;;;13.61;;
71176;SDS011;58877;51.992;4.504;2023-03-02T11:34:28;14.45;;;14.17;;
71176;SDS011;58877;51.992;4.504;2023-03-02T11:40:16;15.48;;;15.21;;
71176;SDS011;58877;51.992;4.504;2023-03-02T11:42:50;13.94;;;13.76;;
71176;SDS011;58877;51.992;4.504;2023-03-02T11:45:36;14.67;;;14.48;;
71176;SDS011;58877;51.992;4.504;2023-03-02T11:50:52;14.93;;;14.64;;
71176;SDS011;58877;51.992;4.504;2023-03-02T11:53:38;14.62;;;14.42;;
71176;SDS011;58877;51.992;4.504;2023-03-02T11:56:28;14.81;;;14.52;;
71176;SDS011;58877;51.992;4.504;2023-03-02T11:59:06;14.87;;;14.55;;
71176;SDS011;58877;51.992;4.504;2023-03-02T12:01:44;13.64;;;13.41;;
71176;SDS011;58877;51.992;4.504;2023-03-02T12:06:56;14.55;;;14.23;;
71176;SDS011;58877;51.992;4.504;2023-03-02T12:11:56;15.85;;;15.46;;
71176;SDS011;58877;51.992;4.504;2023-03-02T12:14:45;16.14;;;15.41;;
71176;SDS011;58877;51.992;4.504;2023-03-02T12:17:18;16.72;;;16.20;;
71176;SDS011;58877;51.992;4.504;2023-03-02T12:19:52;16.05;;;15.60;;
71176;SDS011;58877;51.992;4.504;2023-03-02T12:22:33;15.47;;;15.21;;
71176;SDS011;58877;51.992;4.504;2023-03-02T12:27:52;14.76;;;14.49;;
71176;SDS011;58877;51.992;4.504;2023-03-02T12:30:25;15.41;;;14.88;;
71176;SDS011;58877;51.992;4.504;2023-03-02T12:35:42;15.87;;;15.42;;
71176;SDS011;58877;51.992;4.504;2023-03-02T12:46:32;14.39;;;14.16;;
71176;SDS011;58877;51.992;4.504;2023-03-02T12:49:09;14.42;;;14.07;;
71176;SDS011;58877;51.992;4.504;2023-03-02T12:54:24;14.47;;;14.01;;
71176;SDS011;58877;51.992;4.504;2023-03-02T12:57:06;13.46;;;13.07;;
71176;SDS011;58877;51.992;4.504;2023-03-02T12:59:39;14.61;;;14.38;;
71176;SDS011;58877;51.992;4.504;2023-03-02T13:02:12;14.63;;;14.37;;
71176;SDS011;58877;51.992;4.504;2023-03-02T13:04:39;14.52;;;14.18;;
71176;SDS011;58877;51.992;4.504;2023-03-02T13:07:04;14.10;;;13.91;;
71176;SDS011;58877;51.992;4.504;2023-03-02T13:09:38;14.91;;;14.63;;
71176;SDS011;58877;51.992;4.504;2023-03-02T13:12:10;14.14;;;13.86;;
71176;SDS011;58877;51.992;4.504;2023-03-02T13:14:39;12.99;;;12.77;;
71176;SDS011;58877;51.992;4.504;2023-03-02T13:17:18;13.93;;;13.51;;
71176;SDS011;58877;51.992;4.504;2023-03-02T13:19:47;14.55;;;13.99;;
71176;SDS011;58877;51.992;4.504;2023-03-02T13:22:14;13.75;;;13.42;;
71176;SDS011;58877;51.992;4.504;2023-03-02T13:24:44;13.21;;;12.86;;
71176;SDS011;58877;51.992;4.504;2023-03-02T13:27:19;15.02;;;14.62;;
71176;SDS011;58877;51.992;4.504;2023-03-02T13:29:47;15.36;;;14.86;;
71176;SDS011;58877;51.992;4.504;2023-03-02T13:37:42;14.72;;;14.39;;
71176;SDS011;58877;51.992;4.504;2023-03-02T13:42:53;14.79;;;14.54;;
71176;SDS011;58877;51.992;4.504;2023-03-02T13:45:21;14.96;;;14.62;;
71176;SDS011;58877;51.992;4.504;2023-03-02T13:47:54;15.71;;;15.32;;
71176;SDS011;58877;51.992;4.504;2023-03-02T13:50:23;15.48;;;15.05;;
71176;SDS011;58877;51.992;4.504;2023-03-02T13:52:54;15.84;;;15.44;;
71176;SDS011;58877;51.992;4.504;2023-03-02T13:55:22;16.39;;;15.90;;
71176;SDS011;58877;51.992;4.504;2023-03-02T13:57:49;16.82;;;16.23;;
71176;SDS011;58877;51.992;4.504;2023-03-02T14:00:21;15.12;;;14.65;;
71176;SDS011;58877;51.992;4.504;2023-03-02T14:02:53;15.39;;;15.04;;
71176;SDS011;58877;51.992;4.504;2023-03-02T14:05:19;14.84;;;14.47;;
71176;SDS011;58877;51.992;4.504;2023-03-02T14:07:48;15.15;;;14.77;;
71176;SDS011;58877;51.992;4.504;2023-03-02T14:10:14;14.73;;;14.30;;
71176;SDS011;58877;51.992;4.504;2023-03-02T14:12:42;14.94;;;14.60;;
71176;SDS011;58877;51.992;4.504;2023-03-02T14:15:21;14.80;;;14.58;;
71176;SDS011;58877;51.992;4.504;2023-03-02T14:17:46;14.71;;;14.47;;
71176;SDS011;58877;51.992;4.504;2023-03-02T14:20:14;14.84;;;14.40;;
71176;SDS011;58877;51.992;4.504;2023-03-02T14:22:43;13.85;;;13.63;;
71176;SDS011;58877;51.992;4.504;2023-03-02T14:25:10;14.98;;;14.49;;
71176;SDS011;58877;51.992;4.504;2023-03-02T14:27:36;15.88;;;15.36;;
71176;SDS011;58877;51.992;4.504;2023-03-02T14:30:21;15.85;;;15.34;;
71176;SDS011;58877;51.992;4.504;2023-03-02T14:32:46;16.01;;;15.53;;
71176;SDS011;58877;51.992;4.504;2023-03-02T14:35:12;15.53;;;15.15;;
71176;SDS011;58877;51.992;4.504;2023-03-02T14:37:43;14.68;;;14.31;;
71176;SDS011;58877;51.992;4.504;2023-03-02T14:42:42;14.81;;;14.46;;
71176;SDS011;58877;51.992;4.504;2023-03-02T14:45:08;15.40;;;14.81;;
71176;SDS011;58877;51.992;4.504;2023-03-02T14:47:35;14.74;;;14.12;;
71176;SDS011;58877;51.992;4.504;2023-03-02T14:50:00;14.40;;;13.90;;
71176;SDS011;58877;51.992;4.504;2023-03-02T14:52:59;14.03;;;13.73;;
71176;SDS011;58877;51.992;4.504;2023-03-02T14:55:29;15.11;;;14.81;;
71176;SDS011;58877;51.992;4.504;2023-03-02T14:57:57;14.58;;;14.23;;
71176;SDS011;58877;51.992;4.504;2023-03-02T15:00:28;14.72;;;14.47;;
71176;SDS011;58877;51.992;4.504;2023-03-02T15:02:54;15.38;;;15.02;;
71176;SDS011;58877;51.992;4.504;2023-03-02T15:05:20;15.21;;;14.77;;
71176;SDS011;58877;51.992;4.504;2023-03-02T15:07:46;14.23;;;13.89;;
71176;SDS011;58877;51.992;4.504;2023-03-02T15:10:14;14.05;;;13.84;;
71176;SDS011;58877;51.992;4.504;2023-03-02T15:12:44;12.89;;;12.64;;
71176;SDS011;58877;51.992;4.504;2023-03-02T15:15:11;13.55;;;13.15;;
71176;SDS011;58877;51.992;4.504;2023-03-02T15:17:37;13.73;;;13.40;;
71176;SDS011;58877;51.992;4.504;2023-03-02T15:20:03;13.64;;;13.37;;
71176;SDS011;58877;51.992;4.504;2023-03-02T15:22:30;14.33;;;14.08;;
71176;SDS011;58877;51.992;4.504;2023-03-02T15:24:56;13.54;;;13.30;;
71176;SDS011;58877;51.992;4.504;2023-03-02T15:27:21;12.45;;;12.26;;
71176;SDS011;58877;51.992;4.504;2023-03-02T15:29:47;12.80;;;12.49;;
71176;SDS011;58877;51.992;4.504;2023-03-02T15:32:13;12.80;;;12.43;;
71176;SDS011;58877;51.992;4.504;2023-03-02T15:34:39;12.08;;;11.81;;
71176;SDS011;58877;51.992;4.504;2023-03-02T15:37:06;13.03;;;12.86;;
71176;SDS011;58877;51.992;4.504;2023-03-02T15:39:31;13.24;;;13.10;;
71176;SDS011;58877;51.992;4.504;2023-03-02T15:41:58;12.80;;;12.64;;
71176;SDS011;58877;51.992;4.504;2023-03-02T15:44:24;13.23;;;13.05;;
71176;SDS011;58877;51.992;4.504;2023-03-02T15:46:53;13.94;;;13.66;;
71176;SDS011;58877;51.992;4.504;2023-03-02T15:49:21;13.27;;;12.97;;
71176;SDS011;58877;51.992;4.504;2023-03-02T15:51:49;13.80;;;13.47;;
71176;SDS011;58877;51.992;4.504;2023-03-02T15:54:16;13.40;;;13.17;;